createdAt,value
2016-02-05T00:00:50.481Z,4.76
2016-02-05T00:01:50.452Z,4.79
2016-02-05T00:02:50.455Z,4.78
2016-02-05T00:03:50.457Z,4.78
2016-02-05T00:04:50.445Z,4.75
2016-02-05T00:05:50.432Z,4.87
2016-02-05T00:06:50.435Z,4.78
2016-02-05T00:07:50.422Z,4.82
2016-02-05T00:08:50.440Z,4.83
2016-02-05T00:09:50.428Z,4.78
2016-02-05T00:10:50.447Z,4.79
2016-02-05T00:11:50.417Z,4.9
2016-02-05T00:12:50.420Z,4.84
2016-02-05T00:13:50.423Z,4.92
2016-02-05T00:14:50.415Z,4.86
2016-02-05T00:15:50.418Z,4.84
2016-02-05T00:16:50.405Z,4.87
2016-02-05T00:17:50.409Z,4.94
2016-02-05T00:18:50.395Z,4.92
2016-02-05T00:19:50.414Z,4.95
2016-02-05T00:20:50.401Z,4.92
2016-02-05T00:21:50.247Z,4.9
2016-02-05T00:22:50.392Z,4.94
2016-02-05T00:23:50.237Z,4.86
2016-02-05T00:24:50.381Z,4.94
2016-02-05T00:25:50.373Z,4.95
2016-02-05T00:26:50.392Z,4.94
2016-02-05T00:27:50.363Z,4.94
2016-02-05T00:28:50.381Z,4.9
2016-02-05T00:29:50.370Z,4.83
2016-02-05T00:30:50.362Z,4.94
2016-02-05T00:31:50.208Z,4.9
2016-02-05T00:32:50.357Z,4.94
2016-02-05T00:33:50.360Z,4.89
2016-02-05T00:34:50.346Z,4.94
2016-02-05T00:35:50.375Z,4.94
2016-02-05T00:36:50.330Z,4.9
2016-02-05T00:37:50.333Z,4.92
2016-02-05T00:38:50.352Z,4.9
2016-02-05T00:39:50.339Z,4.86
2016-02-05T00:40:50.341Z,4.94
2016-02-05T00:41:50.344Z,4.82
2016-02-05T00:42:50.331Z,4.75
2016-02-05T00:43:50.325Z,4.94
2016-02-05T00:44:50.327Z,4.87
2016-02-05T00:45:50.314Z,4.98
2016-02-05T00:46:50.317Z,4.87
2016-02-05T00:47:50.336Z,4.86
2016-02-05T00:48:50.307Z,4.92
2016-02-05T00:49:50.309Z,4.9
2016-02-05T00:50:50.312Z,4.9
2016-02-05T00:51:50.315Z,4.92
2016-02-05T00:52:50.287Z,4.86
2016-02-05T00:53:50.289Z,4.9
2016-02-05T00:54:50.292Z,4.94
2016-02-05T00:55:50.298Z,4.92
2016-02-05T00:56:50.301Z,4.84
2016-02-05T00:57:50.119Z,4.92
2016-02-05T00:58:50.278Z,4.87
2016-02-05T00:59:50.296Z,4.89
2016-02-05T01:00:50.268Z,4.87
2016-02-05T01:01:50.255Z,4.89
2016-02-05T01:02:50.289Z,4.79
2016-02-05T01:03:50.260Z,4.95
2016-02-05T01:04:50.279Z,4.94
2016-02-05T01:05:50.266Z,4.89
2016-02-05T01:06:50.284Z,4.78
2016-02-05T01:07:50.272Z,4.83
2016-02-05T01:08:50.260Z,4.94
2016-02-05T01:09:50.246Z,4.89
2016-02-05T01:10:50.280Z,4.86
2016-02-05T01:11:50.267Z,4.9
2016-02-05T01:12:50.240Z,4.82
2016-02-05T01:13:50.242Z,4.89
2016-02-05T01:14:50.245Z,4.87
2016-02-05T01:15:50.232Z,4.87
2016-02-05T01:16:50.219Z,4.87
2016-02-05T01:17:50.226Z,4.92
2016-02-05T01:18:50.213Z,4.86
2016-02-05T01:19:50.215Z,4.9
2016-02-05T01:20:50.217Z,4.94
2016-02-05T01:21:50.221Z,4.9
2016-02-05T01:22:50.208Z,4.92
2016-02-05T01:23:50.195Z,4.95
2016-02-05T01:24:50.213Z,4.94
2016-02-05T01:25:50.186Z,4.97
2016-02-05T01:26:50.203Z,4.86
2016-02-05T01:27:50.195Z,4.92
2016-02-05T01:28:50.182Z,4.89
2016-02-05T01:29:50.185Z,4.89
2016-02-05T01:30:50.188Z,4.9
2016-02-05T01:31:50.190Z,4.97
2016-02-05T01:32:50.021Z,4.95
2016-02-05T01:33:50.180Z,4.94
2016-02-05T01:34:50.168Z,4.9
2016-02-05T01:35:50.189Z,4.92
2016-02-05T01:36:50.161Z,4.87
2016-02-05T01:37:50.164Z,4.92
2016-02-05T01:38:50.151Z,4.92
2016-02-05T01:39:50.169Z,4.95
2016-02-05T01:40:50.172Z,4.98
2016-02-05T01:41:50.158Z,5.01
2016-02-05T01:42:50.161Z,5.01
2016-02-05T01:43:50.149Z,4.98
2016-02-05T01:44:50.135Z,4.94
2016-02-05T01:45:50.138Z,4.98
2016-02-05T01:46:50.140Z,4.94
2016-02-05T01:47:50.129Z,4.95
2016-02-05T01:48:50.147Z,4.95
2016-02-05T01:49:50.119Z,4.95
2016-02-05T01:50:50.121Z,4.97
2016-02-05T01:51:50.139Z,5
2016-02-05T01:52:50.162Z,4.97
2016-02-05T01:53:50.117Z,5.08
2016-02-05T01:54:50.120Z,5.02
2016-02-05T01:55:50.110Z,5.01
2016-02-05T01:56:50.098Z,5.08
2016-02-05T01:57:50.101Z,5.08
2016-02-05T01:58:50.095Z,5.04
2016-02-05T01:59:50.098Z,5.05
2016-02-05T02:00:50.101Z,5.1
2016-02-05T02:01:50.087Z,5.1
2016-02-05T02:02:50.075Z,5
2016-02-05T02:03:50.098Z,5.05
2016-02-05T02:04:50.086Z,5.07
2016-02-05T02:05:50.088Z,5.01
2016-02-05T02:06:50.074Z,5.04
2016-02-05T02:07:50.062Z,5.04
2016-02-05T02:08:50.065Z,5.12
2016-02-05T02:09:50.084Z,5.01
2016-02-05T02:10:50.056Z,5.13
2016-02-05T02:11:50.058Z,5.12
2016-02-05T02:12:50.062Z,5.19
2016-02-05T02:13:50.048Z,5.1
2016-02-05T02:14:50.035Z,5.13
2016-02-05T02:15:50.054Z,5.05
2016-02-05T02:16:50.040Z,5.1
2016-02-05T02:17:50.043Z,5.16
2016-02-05T02:18:50.046Z,5.16
2016-02-05T02:19:50.033Z,5.1
2016-02-05T02:20:50.022Z,5.12
2016-02-05T02:21:50.041Z,5.13
2016-02-05T02:22:50.028Z,5.19
2016-02-05T02:23:50.015Z,5.1
2016-02-05T02:24:50.017Z,5.15
2016-02-05T02:25:50.005Z,5.16
2016-02-05T02:26:50.023Z,5.22
2016-02-05T02:27:50.013Z,5.2
2016-02-05T02:28:49.999Z,5.16
2016-02-05T02:29:50.002Z,5.19
2016-02-05T02:30:50.010Z,5.18
2016-02-05T02:31:49.982Z,5.16
2016-02-05T02:32:50.015Z,5.22
2016-02-05T02:33:50.003Z,5.19
2016-02-05T02:34:49.990Z,5.16
2016-02-05T02:35:49.993Z,5.18
2016-02-05T02:36:49.979Z,5.23
2016-02-05T02:37:49.982Z,5.16
2016-02-05T02:38:49.970Z,5.23
2016-02-05T02:39:49.973Z,5.2
2016-02-05T02:40:49.960Z,5.2
2016-02-05T02:41:49.962Z,5.16
2016-02-05T02:42:49.966Z,5.13
2016-02-05T02:43:49.953Z,5.2
2016-02-05T02:44:49.976Z,5.15
2016-02-05T02:45:49.806Z,5.19
2016-02-05T02:46:49.965Z,5.28
2016-02-05T02:47:49.984Z,5.19
2016-02-05T02:48:49.954Z,5.23
2016-02-05T02:49:49.942Z,5.25
2016-02-05T02:50:49.789Z,5.23
2016-02-05T02:51:49.948Z,5.18
2016-02-05T02:52:49.937Z,5.29
2016-02-05T02:53:49.940Z,5.22
2016-02-05T02:54:49.942Z,5.25
2016-02-05T02:55:49.930Z,5.33
2016-02-05T02:56:49.917Z,5.23
2016-02-05T02:57:49.937Z,5.31
2016-02-05T02:58:49.908Z,5.26
2016-02-05T02:59:49.911Z,5.26
2016-02-05T03:00:49.917Z,5.28
2016-02-05T03:01:49.904Z,5.26
2016-02-05T03:02:49.891Z,5.25
2016-02-05T03:03:49.925Z,5.31
2016-02-05T03:04:49.897Z,5.23
2016-02-05T03:05:49.900Z,5.28
2016-02-05T03:06:49.903Z,5.28
2016-02-05T03:07:49.874Z,5.31
2016-02-05T03:08:49.878Z,5.26
2016-02-05T03:09:49.895Z,5.28
2016-02-05T03:10:49.867Z,5.31
2016-02-05T03:11:49.869Z,5.25
2016-02-05T03:12:49.873Z,5.25
2016-02-05T03:13:49.860Z,5.23
2016-02-05T03:14:49.883Z,5.25
2016-02-05T03:15:49.857Z,5.36
2016-02-05T03:16:49.875Z,5.28
2016-02-05T03:17:49.863Z,5.31
2016-02-05T03:18:49.849Z,5.29
2016-02-05T03:19:49.839Z,5.26
2016-02-05T03:20:49.843Z,5.31
2016-02-05T03:21:49.846Z,5.31
2016-02-05T03:22:49.848Z,5.31
2016-02-05T03:23:49.836Z,5.26
2016-02-05T03:24:49.681Z,5.28
2016-02-05T03:25:49.826Z,5.25
2016-02-05T03:26:49.829Z,5.28
2016-02-05T03:27:49.832Z,5.28
2016-02-05T03:28:49.818Z,5.26
2016-02-05T03:29:49.821Z,5.26
2016-02-05T03:30:49.820Z,5.29
2016-02-05T03:31:49.808Z,5.19
2016-02-05T03:32:49.841Z,5.23
2016-02-05T03:33:49.827Z,5.22
2016-02-05T03:34:49.799Z,5.18
2016-02-05T03:35:49.787Z,5.23
2016-02-05T03:36:49.805Z,5.33
2016-02-05T03:37:49.792Z,5.22
2016-02-05T03:38:49.797Z,5.18
2016-02-05T03:39:49.799Z,5.19
2016-02-05T03:40:49.787Z,5.19
2016-02-05T03:41:49.773Z,5.26
2016-02-05T03:42:49.776Z,5.23
2016-02-05T03:43:49.779Z,5.28
2016-02-05T03:44:49.766Z,5.26
2016-02-05T03:45:49.786Z,5.29
2016-02-05T03:46:49.757Z,5.33
2016-02-05T03:47:49.761Z,5.23
2016-02-05T03:48:49.763Z,5.25
2016-02-05T03:49:49.750Z,5.31
2016-02-05T03:50:49.752Z,5.26
2016-02-05T03:51:49.772Z,5.36
2016-02-05T03:52:49.743Z,5.31
2016-02-05T03:53:49.792Z,5.34
2016-02-05T03:54:49.733Z,5.37
2016-02-05T03:55:49.734Z,5.34
2016-02-05T03:56:49.738Z,5.36
2016-02-05T03:57:49.741Z,5.33
2016-02-05T03:58:49.730Z,5.33
2016-02-05T03:59:49.739Z,5.33
2016-02-05T04:00:49.711Z,5.36
2016-02-05T04:01:49.714Z,5.36
2016-02-05T04:02:49.717Z,5.4
2016-02-05T04:03:49.703Z,5.37
2016-02-05T04:04:49.707Z,5.36
2016-02-05T04:05:49.712Z,5.4
2016-02-05T04:06:49.700Z,5.37
2016-02-05T04:07:49.686Z,5.36
2016-02-05T04:08:49.689Z,5.38
2016-02-05T04:09:49.692Z,5.37
2016-02-05T04:10:49.710Z,5.36
2016-02-05T04:11:49.666Z,5.37
2016-02-05T04:12:49.669Z,5.38
2016-02-05T04:13:49.671Z,5.37
2016-02-05T04:14:49.674Z,5.37
2016-02-05T04:15:49.692Z,5.34
2016-02-05T04:16:49.663Z,5.33
2016-02-05T04:17:49.666Z,5.43
2016-02-05T04:18:49.669Z,5.38
2016-02-05T04:19:49.658Z,5.33
2016-02-05T04:20:49.660Z,5.38
2016-02-05T04:21:49.663Z,5.34
2016-02-05T04:22:49.639Z,5.33
2016-02-05T04:23:49.643Z,5.34
2016-02-05T04:24:49.645Z,5.33
2016-02-05T04:25:49.663Z,5.38
2016-02-05T04:26:49.635Z,5.33
2016-02-05T04:27:49.621Z,5.41
2016-02-05T04:28:49.641Z,5.36
2016-02-05T04:29:49.625Z,5.34
2016-02-05T04:30:49.628Z,5.36
2016-02-05T04:31:49.631Z,5.36
2016-02-05T04:32:49.596Z,5.31
2016-02-05T04:33:49.591Z,5.34
2016-02-05T04:34:49.600Z,5.36
2016-02-05T04:35:49.564Z,5.28
2016-02-05T04:36:49.559Z,5.37
2016-02-05T04:37:49.558Z,5.36
2016-02-05T04:38:49.542Z,5.36
2016-02-05T04:39:49.574Z,5.36
2016-02-05T04:40:49.543Z,5.36
2016-02-05T04:41:49.528Z,5.36
2016-02-05T04:42:49.513Z,5.4
2016-02-05T04:43:49.531Z,5.34
2016-02-05T04:44:49.516Z,5.28
2016-02-05T04:45:49.534Z,5.29
2016-02-05T04:46:49.504Z,5.33
2016-02-05T04:47:49.537Z,5.37
2016-02-05T04:48:49.524Z,5.33
2016-02-05T04:49:49.495Z,5.38
2016-02-05T04:50:49.499Z,5.38
2016-02-05T04:51:49.516Z,5.36
2016-02-05T04:52:49.488Z,5.4
2016-02-05T04:53:49.491Z,5.4
2016-02-05T04:54:49.478Z,5.4
2016-02-05T04:55:49.485Z,5.44
2016-02-05T04:56:49.488Z,5.4
2016-02-05T04:57:49.474Z,5.38
2016-02-05T04:58:49.478Z,5.36
2016-02-05T04:59:49.481Z,5.38
2016-02-05T05:00:49.454Z,5.4
2016-02-05T05:01:49.457Z,5.34
2016-02-05T05:02:49.459Z,5.36
2016-02-05T05:03:49.465Z,5.33
2016-02-05T05:04:49.452Z,5.36
2016-02-05T05:05:49.454Z,5.4
2016-02-05T05:06:49.457Z,5.47
2016-02-05T05:07:49.445Z,5.36
2016-02-05T05:08:49.432Z,5.4
2016-02-05T05:09:49.434Z,5.36
2016-02-05T05:10:49.468Z,5.49
2016-02-05T05:11:49.440Z,5.4
2016-02-05T05:12:49.427Z,5.38
2016-02-05T05:13:49.445Z,5.37
2016-02-05T05:14:49.432Z,5.47
2016-02-05T05:15:49.465Z,5.36
2016-02-05T05:16:49.438Z,5.33
2016-02-05T05:17:49.410Z,5.41
2016-02-05T05:18:49.412Z,5.31
2016-02-05T05:19:49.415Z,5.43
2016-02-05T05:20:49.402Z,5.44
2016-02-05T05:21:49.405Z,5.44
2016-02-05T05:22:49.408Z,5.36
2016-02-05T05:23:49.395Z,5.4
2016-02-05T05:24:49.383Z,5.46
2016-02-05T05:25:49.401Z,5.4
2016-02-05T05:26:49.372Z,5.38
2016-02-05T05:27:49.391Z,5.43
2016-02-05T05:28:49.398Z,5.43
2016-02-05T05:29:49.385Z,5.37
2016-02-05T05:30:49.389Z,5.51
2016-02-05T05:31:49.377Z,5.52
2016-02-05T05:32:49.364Z,5.55
2016-02-05T05:33:49.695Z,5.54
2016-02-05T05:34:49.370Z,5.51
2016-02-05T05:35:49.357Z,5.49
2016-02-05T05:36:49.347Z,5.58
2016-02-05T05:37:49.397Z,5.47
2016-02-05T05:38:49.353Z,5.46
2016-02-05T05:39:49.341Z,5.58
2016-02-05T05:40:49.358Z,5.44
2016-02-05T05:41:49.360Z,5.44
2016-02-05T05:42:49.364Z,5.56
2016-02-05T05:43:49.321Z,5.56
2016-02-05T05:44:49.339Z,5.46
2016-02-05T05:45:49.341Z,5.38
2016-02-05T05:46:49.313Z,5.49
2016-02-05T05:47:49.332Z,5.55
2016-02-05T05:48:49.335Z,5.51
2016-02-05T05:49:49.322Z,5.51
2016-02-05T05:50:49.325Z,5.51
2016-02-05T05:51:49.327Z,5.54
2016-02-05T05:52:49.300Z,5.49
2016-02-05T05:53:49.302Z,5.56
2016-02-05T05:54:49.305Z,5.49
2016-02-05T05:55:49.291Z,5.51
2016-02-05T05:56:49.309Z,5.52
2016-02-05T05:57:49.313Z,5.56
2016-02-05T05:58:49.283Z,5.51
2016-02-05T05:59:49.287Z,5.51
2016-02-05T06:00:49.289Z,5.49
2016-02-05T06:01:49.278Z,5.51
2016-02-05T06:02:49.280Z,5.55
2016-02-05T06:03:49.283Z,5.54
2016-02-05T06:04:49.270Z,5.49
2016-02-05T06:05:49.272Z,5.54
2016-02-05T06:06:49.275Z,5.51
2016-02-05T06:07:49.278Z,5.56
2016-02-05T06:08:49.251Z,5.47
2016-02-05T06:09:49.253Z,5.49
2016-02-05T06:10:49.256Z,5.49
2016-02-05T06:11:49.242Z,5.51
2016-02-05T06:12:49.245Z,5.55
2016-02-05T06:13:49.248Z,5.56
2016-02-05T06:14:49.236Z,5.55
2016-02-05T06:15:49.238Z,5.49
2016-02-05T06:16:49.241Z,5.52
2016-02-05T06:17:49.228Z,5.52
2016-02-05T06:18:49.233Z,5.47
2016-02-05T06:19:49.219Z,5.51
2016-02-05T06:20:49.222Z,5.47
2016-02-05T06:21:49.228Z,5.49
2016-02-05T06:22:49.216Z,5.59
2016-02-05T06:23:49.219Z,5.56
2016-02-05T06:24:49.205Z,5.51
2016-02-05T06:25:49.208Z,5.52
2016-02-05T06:26:49.210Z,5.51
2016-02-05T06:27:49.214Z,5.52
2016-02-05T06:28:49.203Z,5.51
2016-02-05T06:29:49.199Z,5.46
2016-02-05T06:30:49.201Z,5.54
2016-02-05T06:31:49.189Z,5.55
2016-02-05T06:32:49.192Z,5.54
2016-02-05T06:33:49.179Z,5.54
2016-02-05T06:34:49.181Z,5.54
2016-02-05T06:35:49.184Z,5.55
2016-02-05T06:36:49.172Z,5.51
2016-02-05T06:37:49.158Z,5.54
2016-02-05T06:38:49.161Z,5.58
2016-02-05T06:39:49.164Z,5.44
2016-02-05T06:40:49.167Z,5.46
2016-02-05T06:41:49.154Z,5.41
2016-02-05T06:42:49.157Z,5.43
2016-02-05T06:43:49.144Z,5.37
2016-02-05T06:44:49.147Z,5.51
2016-02-05T06:45:49.150Z,5.38
2016-02-05T06:46:49.137Z,5.46
2016-02-05T06:47:49.139Z,5.43
2016-02-05T06:48:49.157Z,5.44
2016-02-05T06:49:49.128Z,5.41
2016-02-05T06:50:49.117Z,5.44
2016-02-05T06:51:49.134Z,5.51
2016-02-05T06:52:49.121Z,5.47
2016-02-05T06:53:49.124Z,5.46
2016-02-05T06:54:49.127Z,5.44
2016-02-05T06:55:49.100Z,5.46
2016-02-05T06:56:49.117Z,5.58
2016-02-05T06:57:49.120Z,5.49
2016-02-05T06:58:49.089Z,5.54
2016-02-05T06:59:49.088Z,5.67
2016-02-05T07:00:49.108Z,5.62
2016-02-05T07:01:49.078Z,5.67
2016-02-05T07:02:49.081Z,5.65
2016-02-05T07:03:49.099Z,5.64
2016-02-05T07:04:49.088Z,5.67
2016-02-05T07:05:49.090Z,5.67
2016-02-05T07:06:49.093Z,5.69
2016-02-05T07:07:49.080Z,5.65
2016-02-05T07:08:49.083Z,5.67
2016-02-05T07:09:49.071Z,5.69
2016-02-05T07:10:49.073Z,5.62
2016-02-05T07:11:49.076Z,5.65
2016-02-05T07:12:49.047Z,5.69
2016-02-05T07:13:49.051Z,5.69
2016-02-05T07:14:49.054Z,5.79
2016-02-05T07:15:49.057Z,5.8
2016-02-05T07:16:49.043Z,5.87
2016-02-05T07:17:49.031Z,5.87
2016-02-05T07:18:49.065Z,5.83
2016-02-05T07:19:49.037Z,5.9
2016-02-05T07:20:49.039Z,5.79
2016-02-05T07:21:49.033Z,5.95
2016-02-05T07:22:49.036Z,5.87
2016-02-05T07:23:49.022Z,5.92
2016-02-05T07:24:49.041Z,5.91
2016-02-05T07:25:49.622Z,5.94
2016-02-05T07:26:49.016Z,6.02
2016-02-05T07:27:49.018Z,6.01
2016-02-05T07:28:49.006Z,6.02
2016-02-05T07:29:48.995Z,6.02
2016-02-05T07:30:48.997Z,6.09
2016-02-05T07:31:49.031Z,6.17
2016-02-05T07:32:49.003Z,6.09
2016-02-05T07:33:49.005Z,6.16
2016-02-05T07:34:49.026Z,6.2
2016-02-05T07:35:48.982Z,6.09
2016-02-05T07:36:48.985Z,6.13
2016-02-05T07:37:49.002Z,6.32
2016-02-05T07:38:48.990Z,6.28
2016-02-05T07:39:48.976Z,6.31
2016-02-05T07:40:48.980Z,6.31
2016-02-05T07:41:48.982Z,6.28
2016-02-05T07:42:48.970Z,6.32
2016-02-05T07:43:48.956Z,6.36
2016-02-05T07:44:48.974Z,6.35
2016-02-05T07:45:48.962Z,6.39
2016-02-05T07:46:48.965Z,6.34
2016-02-05T07:47:48.967Z,6.36
2016-02-05T07:48:48.953Z,6.36
2016-02-05T07:49:48.941Z,6.41
2016-02-05T07:50:48.959Z,6.39
2016-02-05T07:51:48.946Z,6.44
2016-02-05T07:52:48.933Z,6.41
2016-02-05T07:53:48.952Z,6.53
2016-02-05T07:54:48.940Z,6.5
2016-02-05T07:55:48.928Z,6.49
2016-02-05T07:56:48.946Z,6.49
2016-02-05T07:57:48.918Z,6.47
2016-02-05T07:58:48.920Z,6.49
2016-02-05T07:59:48.938Z,6.52
2016-02-05T08:00:48.916Z,6.6
2016-02-05T08:01:48.918Z,6.64
2016-02-05T08:02:48.924Z,6.6
2016-02-05T08:03:48.911Z,6.74
2016-02-05T08:04:48.899Z,6.68
2016-02-05T08:05:48.902Z,6.82
2016-02-05T08:06:48.904Z,6.78
2016-02-05T08:07:48.891Z,6.85
2016-02-05T08:08:48.911Z,6.89
2016-02-05T08:09:48.913Z,6.86
2016-02-05T08:10:48.916Z,6.89
2016-02-05T08:11:48.886Z,6.9
2016-02-05T08:12:48.874Z,6.95
2016-02-05T08:13:48.892Z,6.96
2016-02-05T08:14:48.879Z,7.05
2016-02-05T08:15:48.866Z,7.01
2016-02-05T08:16:48.885Z,7.11
2016-02-05T08:17:48.871Z,7.11
2016-02-05T08:18:48.859Z,7.19
2016-02-05T08:19:48.146Z,7.31
2016-02-05T08:20:48.851Z,7.23
2016-02-05T08:21:48.869Z,7.43
2016-02-05T08:22:48.858Z,7.4
2016-02-05T08:23:48.860Z,7.58
2016-02-05T08:24:48.846Z,7.53
2016-02-05T08:25:48.849Z,7.58
2016-02-05T08:26:48.852Z,7.72
2016-02-05T08:27:48.842Z,7.75
2016-02-05T08:28:48.844Z,7.81
2016-02-05T08:29:48.831Z,7.78
2016-02-05T08:30:48.820Z,7.96
2016-02-05T08:31:48.838Z,7.98
2016-02-05T08:32:48.825Z,8.05
2016-02-05T08:33:48.828Z,8.05
2016-02-05T08:34:48.815Z,8.08
2016-02-05T08:35:48.849Z,8.14
2016-02-05T08:36:48.836Z,8.27
2016-02-05T08:37:48.823Z,8.34
2016-02-05T08:38:48.810Z,8.34
2016-02-05T08:39:48.844Z,8.34
2016-02-05T08:40:48.816Z,8.35
2016-02-05T08:41:48.803Z,8.31
2016-02-05T08:42:48.822Z,8.31
2016-02-05T08:43:48.793Z,8.39
2016-02-05T08:44:48.796Z,8.49
2016-02-05T08:45:48.830Z,8.46
2016-02-05T08:46:48.802Z,8.46
2016-02-05T08:47:48.790Z,8.59
2016-02-05T08:48:48.809Z,8.54
2016-02-05T08:49:48.780Z,8.52
2016-02-05T08:50:48.783Z,8.6
2016-02-05T08:51:48.770Z,8.57
2016-02-05T08:52:48.775Z,8.49
2016-02-05T08:53:48.777Z,8.5
2016-02-05T08:54:48.764Z,8.45
2016-02-05T08:55:48.767Z,8.53
2016-02-05T08:56:48.770Z,8.54
2016-02-05T08:57:48.772Z,8.57
2016-02-05T08:58:48.760Z,8.57
2016-02-05T08:59:48.762Z,8.59
2016-02-05T09:00:48.753Z,8.53
2016-02-05T09:01:48.756Z,8.54
2016-02-05T09:02:48.759Z,8.57
2016-02-05T09:03:48.762Z,8.6
2016-02-05T09:04:48.748Z,8.57
2016-02-05T09:05:48.754Z,8.59
2016-02-05T09:06:48.757Z,8.56
2016-02-05T09:07:48.744Z,8.59
2016-02-05T09:08:48.746Z,8.6
2016-02-05T09:09:48.734Z,8.59
2016-02-05T09:10:48.737Z,8.54
2016-02-05T09:11:48.754Z,8.39
2016-02-05T09:12:48.743Z,8.42
2016-02-05T09:13:48.731Z,8.39
2016-02-05T09:14:48.721Z,8.49
2016-02-05T09:15:48.724Z,8.42
2016-02-05T09:16:48.727Z,8.35
2016-02-05T09:17:48.716Z,8.45
2016-02-05T09:18:48.718Z,8.38
2016-02-05T09:19:48.736Z,8.44
2016-02-05T09:20:48.715Z,8.52
2016-02-05T09:21:48.718Z,8.57
2016-02-05T09:22:48.549Z,8.68
2016-02-05T09:23:48.707Z,8.71
2016-02-05T09:24:48.726Z,8.77
2016-02-05T09:25:48.702Z,8.72
2016-02-05T09:26:48.704Z,8.81
2016-02-05T09:27:48.707Z,8.78
2016-02-05T09:28:48.694Z,8.72
2016-02-05T09:29:48.680Z,8.77
2016-02-05T09:30:48.683Z,8.87
2016-02-05T09:31:48.685Z,8.82
2016-02-05T09:32:48.688Z,8.87
2016-02-05T09:33:48.676Z,8.74
2016-02-05T09:34:48.679Z,8.79
2016-02-05T09:35:48.681Z,8.86
2016-02-05T09:36:48.669Z,8.72
2016-02-05T09:37:48.671Z,8.71
2016-02-05T09:38:48.674Z,8.87
2016-02-05T09:39:48.661Z,8.93
2016-02-05T09:40:48.679Z,8.9
2016-02-05T09:41:48.667Z,9.05
2016-02-05T09:42:48.669Z,9.09
2016-02-05T09:43:48.672Z,9.24
2016-02-05T09:44:48.658Z,9.16
2016-02-05T09:45:48.646Z,9.29
2016-02-05T09:46:48.665Z,9.22
2016-02-05T09:47:48.652Z,9.26
2016-02-05T09:48:48.642Z,9.3
2016-02-05T09:49:48.646Z,9.24
2016-02-05T09:50:48.679Z,9.19
2016-02-05T09:51:48.650Z,9.21
2016-02-05T09:52:48.637Z,9.16
2016-02-05T09:53:48.641Z,9.11
2016-02-05T09:54:48.644Z,9.05
2016-02-05T09:55:48.647Z,8.9
2016-02-05T09:56:48.633Z,8.92
2016-02-05T09:57:48.636Z,8.92
2016-02-05T09:58:48.640Z,8.92
2016-02-05T09:59:48.628Z,8.87
2016-02-05T10:00:48.614Z,8.86
2016-02-05T10:01:48.648Z,8.82
2016-02-05T10:02:48.636Z,8.89
2016-02-05T10:03:48.623Z,8.86
2016-02-05T10:04:48.610Z,8.86
2016-02-05T10:05:48.599Z,8.86
2016-02-05T10:06:48.601Z,8.87
2016-02-05T10:07:48.619Z,9
2016-02-05T10:08:48.607Z,8.97
2016-02-05T10:09:48.609Z,9.02
2016-02-05T10:10:48.612Z,9
2016-02-05T10:11:48.630Z,9.18
2016-02-05T10:12:48.601Z,9.21
2016-02-05T10:13:48.604Z,9.26
2016-02-05T10:14:48.591Z,9.31
2016-02-05T10:15:48.595Z,9.36
2016-02-05T10:16:48.614Z,9.36
2016-02-05T10:17:48.585Z,9.44
2016-02-05T10:18:48.576Z,9.49
2016-02-05T10:19:48.610Z,9.48
2016-02-05T10:20:48.581Z,9.44
2016-02-05T10:21:48.584Z,9.52
2016-02-05T10:22:48.603Z,9.42
2016-02-05T10:23:48.574Z,9.49
2016-02-05T10:24:48.576Z,9.52
2016-02-05T10:25:48.564Z,9.55
2016-02-05T10:26:48.581Z,9.54
2016-02-05T10:27:48.570Z,9.69
2016-02-05T10:28:48.572Z,9.69
2016-02-05T10:29:48.575Z,9.67
2016-02-05T10:30:48.561Z,9.81
2016-02-05T10:31:48.564Z,9.76
2016-02-05T10:32:48.552Z,9.72
2016-02-05T10:33:48.558Z,9.74
2016-02-05T10:34:48.560Z,9.72
2016-02-05T10:35:48.563Z,9.7
2016-02-05T10:36:48.550Z,9.64
2016-02-05T10:37:48.569Z,9.58
2016-02-05T10:38:48.541Z,9.62
2016-02-05T10:39:48.544Z,9.59
2016-02-05T10:40:48.547Z,9.54
2016-02-05T10:41:48.565Z,9.48
2016-02-05T10:42:48.552Z,9.44
2016-02-05T10:43:48.540Z,9.39
2016-02-05T10:44:48.526Z,9.36
2016-02-05T10:45:48.529Z,9.31
2016-02-05T10:46:48.532Z,9.34
2016-02-05T10:47:48.550Z,9.27
2016-02-05T10:48:48.521Z,9.24
2016-02-05T10:49:48.524Z,9.22
2016-02-05T10:50:48.526Z,9.16
2016-02-05T10:51:48.529Z,9.26
2016-02-05T10:52:48.517Z,9.24
2016-02-05T10:53:48.519Z,9.26
2016-02-05T10:54:48.522Z,9.29
2016-02-05T10:55:48.509Z,9.4
2016-02-05T10:56:48.512Z,9.45
2016-02-05T10:57:48.514Z,9.49
2016-02-05T10:58:48.502Z,9.54
2016-02-05T10:59:48.505Z,9.54
2016-02-05T11:00:48.523Z,9.58
2016-02-05T11:01:48.510Z,9.67
2016-02-05T11:02:48.500Z,9.7
2016-02-05T11:03:48.517Z,9.7
2016-02-05T11:04:48.505Z,9.76
2016-02-05T11:05:48.492Z,9.77
2016-02-05T11:06:48.510Z,9.85
2016-02-05T11:07:48.482Z,9.91
2016-02-05T11:08:48.484Z,9.92
2016-02-05T11:09:48.487Z,10.06
2016-02-05T11:10:48.490Z,10.13
2016-02-05T11:11:48.509Z,10.17
2016-02-05T11:12:48.496Z,10.28
2016-02-05T11:13:48.499Z,10.45
2016-02-05T11:14:48.502Z,10.48
2016-02-05T11:15:48.472Z,10.42
2016-02-05T11:16:48.477Z,10.48
2016-02-05T11:17:48.479Z,10.48
2016-02-05T11:18:48.482Z,10.46
2016-02-05T11:19:48.472Z,10.58
2016-02-05T11:20:48.474Z,10.57
2016-02-05T11:21:48.477Z,10.53
2016-02-05T11:22:48.494Z,10.64
2016-02-05T11:23:48.466Z,10.71
2016-02-05T11:24:48.532Z,10.68
2016-02-05T11:25:48.473Z,10.75
2016-02-05T11:26:48.491Z,10.84
2016-02-05T11:27:48.462Z,10.84
2016-02-05T11:28:48.465Z,10.82
2016-02-05T11:29:48.467Z,10.94
2016-02-05T11:30:48.455Z,10.95
2016-02-05T11:31:48.459Z,10.94
2016-02-05T11:32:48.463Z,10.95
2016-02-05T11:33:48.449Z,10.97
2016-02-05T11:34:48.468Z,10.89
2016-02-05T11:35:48.438Z,10.79
2016-02-05T11:36:48.447Z,10.84
2016-02-05T11:37:48.448Z,10.77
2016-02-05T11:38:48.451Z,10.8
2016-02-05T11:39:48.440Z,10.71
2016-02-05T11:40:48.442Z,10.59
2016-02-05T11:41:48.445Z,10.48
2016-02-05T11:42:48.447Z,10.34
2016-02-05T11:43:48.434Z,10.28
2016-02-05T11:44:48.437Z,10.24
2016-02-05T11:45:48.440Z,10.15
2016-02-05T11:46:48.442Z,10.07
2016-02-05T11:47:48.445Z,9.91
2016-02-05T11:48:48.431Z,9.85
2016-02-05T11:49:48.434Z,9.64
2016-02-05T11:50:48.422Z,9.66
2016-02-05T11:51:48.425Z,9.54
2016-02-05T11:52:48.427Z,9.59
2016-02-05T11:53:48.430Z,9.51
2016-02-05T11:54:48.416Z,9.45
2016-02-05T11:55:48.435Z,9.45
2016-02-05T11:56:48.422Z,9.49
2016-02-05T11:57:48.409Z,9.54
2016-02-05T11:58:48.412Z,9.54
2016-02-05T11:59:48.447Z,9.59
2016-02-05T12:00:48.402Z,9.64
2016-02-05T12:01:48.405Z,9.64
2016-02-05T12:02:48.424Z,9.66
2016-02-05T12:03:48.396Z,9.67
2016-02-05T12:04:48.417Z,9.7
2016-02-05T12:05:48.419Z,9.66
2016-02-05T12:06:48.422Z,9.74
2016-02-05T12:07:48.409Z,9.74
2016-02-05T12:08:48.397Z,9.73
2016-02-05T12:09:48.402Z,9.76
2016-02-05T12:10:48.405Z,9.76
2016-02-05T12:11:48.423Z,9.77
2016-02-05T12:12:48.395Z,9.73
2016-02-05T12:13:48.398Z,9.82
2016-02-05T12:14:48.384Z,9.88
2016-02-05T12:15:48.387Z,9.85
2016-02-05T12:16:48.389Z,9.85
2016-02-05T12:17:48.379Z,9.85
2016-02-05T12:18:48.382Z,9.9
2016-02-05T12:19:48.385Z,9.92
2016-02-05T12:20:48.371Z,9.87
2016-02-05T12:21:48.374Z,9.9
2016-02-05T12:22:48.379Z,9.81
2016-02-05T12:23:48.381Z,9.9
2016-02-05T12:24:48.369Z,9.91
2016-02-05T12:25:48.387Z,10.02
2016-02-05T12:26:48.375Z,10.05
2016-02-05T12:27:48.377Z,10.24
2016-02-05T12:28:48.365Z,10.3
2016-02-05T12:29:48.367Z,10.39
2016-02-05T12:30:48.373Z,10.55
2016-02-05T12:31:48.234Z,10.69
2016-02-05T12:32:48.362Z,10.82
2016-02-05T12:33:48.368Z,10.94
2016-02-05T12:34:48.216Z,11.16
2016-02-05T12:35:48.358Z,11.3
2016-02-05T12:36:48.361Z,11.52
2016-02-05T12:37:48.351Z,11.51
2016-02-05T12:38:48.354Z,11.6
2016-02-05T12:39:48.403Z,11.73
2016-02-05T12:40:48.359Z,11.81
2016-02-05T12:41:48.362Z,11.88
2016-02-05T12:42:48.366Z,12
2016-02-05T12:43:48.368Z,12.05
2016-02-05T12:44:48.340Z,12.03
2016-02-05T12:45:48.358Z,12.11
2016-02-05T12:46:48.362Z,12.2
2016-02-05T12:47:48.348Z,12.36
2016-02-05T12:48:48.351Z,12.45
2016-02-05T12:49:48.369Z,12.48
2016-02-05T12:50:48.345Z,12.51
2016-02-05T12:51:48.347Z,12.5
2016-02-05T12:52:48.366Z,12.54
2016-02-05T12:53:48.337Z,12.55
2016-02-05T12:54:48.355Z,12.48
2016-02-05T12:55:48.330Z,12.48
2016-02-05T12:56:48.349Z,12.33
2016-02-05T12:57:48.352Z,12.3
2016-02-05T12:58:48.339Z,12.33
2016-02-05T12:59:48.341Z,12.35
2016-02-05T13:00:48.345Z,12.28
2016-02-05T13:01:48.332Z,12.29
2016-02-05T13:02:48.335Z,12.43
2016-02-05T13:03:48.354Z,12.5
2016-02-05T13:04:48.332Z,12.61
2016-02-05T13:05:48.339Z,12.58
2016-02-05T13:06:48.356Z,12.51
2016-02-05T13:07:48.328Z,12.51
2016-02-05T13:08:48.331Z,12.48
2016-02-05T13:09:48.333Z,12.32
2016-02-05T13:10:48.340Z,12.21
2016-02-05T13:11:48.343Z,12.12
2016-02-05T13:12:48.329Z,11.97
2016-02-05T13:13:48.332Z,12.02
2016-02-05T13:14:48.335Z,11.99
2016-02-05T13:15:48.324Z,11.95
2016-02-05T13:16:48.326Z,11.96
2016-02-05T13:17:48.329Z,11.96
2016-02-05T13:18:48.332Z,11.97